TRA51T LATI-EHAM
Flight info
| Callsign | TRA51T |
|---|---|
| Flight time | 2h 32m |
| Altitude | 38000 |
| Route | INLOT DCT RETRA DCT POD DCT GLOMY DCT RASTU DCT SIMBA DCT KEMES DCT GASKA DCT MAPOX DCT BIGGE DCT NORKU |
| Aircraft | A21N/M-SDE2E3FGHIRWXY/LB1 |
Departure
| Time | 2026-05-07 15:44 |
|---|---|
| Airport | Tirana International Airport Mother Teresa (LATI) |
Arrival
| Time | 2026-05-07 18:16 |
|---|---|
| Airport | Amsterdam Airport Schiphol (EHAM) |
| Time | Latitude | Longitude | Altitude | Speed | Heading |
|---|---|---|---|---|---|
| 2026-05-07 15:25 | 41.42107 | 19.71501 | 117 ft | 0 kts | 265° |
| 2026-05-07 15:35 | 41.42108 | 19.71506 | 121 ft | 3 kts | 267° |
| 2026-05-07 15:35 | 41.42109 | 19.71522 | 117 ft | 3 kts | 254° |
| 2026-05-07 15:36 | 41.42117 | 19.71543 | 119 ft | 3 kts | 212° |
| 2026-05-07 15:36 | 41.42134 | 19.71551 | 118 ft | 3 kts | 180° |
| 2026-05-07 15:36 | 41.42148 | 19.71550 | 117 ft | 1 kts | 177° |
| 2026-05-07 15:36 | 41.42150 | 19.71550 | 119 ft | 0 kts | 177° |
| 2026-05-07 15:38 | 41.42149 | 19.71550 | 121 ft | 0 kts | 177° |
| 2026-05-07 15:38 | 41.42136 | 19.71551 | 117 ft | 4 kts | 176° |
| 2026-05-07 15:38 | 41.42104 | 19.71555 | 118 ft | 5 kts | 173° |
| 2026-05-07 15:39 | 41.42061 | 19.71565 | 118 ft | 7 kts | 171° |
| 2026-05-07 15:39 | 41.42008 | 19.71575 | 121 ft | 8 kts | 172° |
| 2026-05-07 15:39 | 41.41945 | 19.71582 | 117 ft | 11 kts | 176° |
| 2026-05-07 15:39 | 41.41864 | 19.71592 | 122 ft | 12 kts | 174° |
| 2026-05-07 15:40 | 41.41778 | 19.71603 | 121 ft | 13 kts | 175° |
| 2026-05-07 15:40 | 41.41682 | 19.71616 | 121 ft | 15 kts | 174° |
| 2026-05-07 15:40 | 41.41570 | 19.71631 | 123 ft | 18 kts | 174° |
| 2026-05-07 15:40 | 41.41427 | 19.71650 | 124 ft | 24 kts | 174° |
| 2026-05-07 15:41 | 41.41254 | 19.71673 | 125 ft | 25 kts | 174° |
| 2026-05-07 15:41 | 41.41080 | 19.71696 | 125 ft | 25 kts | 174° |
| 2026-05-07 15:41 | 41.40908 | 19.71726 | 128 ft | 25 kts | 170° |
| 2026-05-07 15:41 | 41.40737 | 19.71761 | 127 ft | 25 kts | 174° |
| 2026-05-07 15:42 | 41.40634 | 19.71814 | 128 ft | 12 kts | 114° |
| 2026-05-07 15:42 | 41.40643 | 19.71892 | 129 ft | 9 kts | 70° |
| 2026-05-07 15:42 | 41.40664 | 19.71988 | 129 ft | 13 kts | 76° |
| 2026-05-07 15:42 | 41.40688 | 19.72113 | 130 ft | 14 kts | 64° |
| 2026-05-07 15:43 | 41.40774 | 19.72151 | 129 ft | 22 kts | 355° |
| 2026-05-07 15:43 | 41.41158 | 19.72095 | 126 ft | 87 kts | 354° |
| 2026-05-07 15:43 | 41.41994 | 19.71987 | 122 ft | 153 kts | 354° |
| 2026-05-07 15:43 | 41.43129 | 19.71879 | 481 ft | 167 kts | 354° |
| 2026-05-07 15:44 | 41.44288 | 19.71729 | 1195 ft | 167 kts | 354° |
| 2026-05-07 15:44 | 41.45451 | 19.71568 | 1892 ft | 175 kts | 355° |
| 2026-05-07 15:44 | 41.46790 | 19.71383 | 2161 ft | 210 kts | 355° |
| 2026-05-07 15:44 | 41.48343 | 19.71176 | 2483 ft | 241 kts | 355° |
| 2026-05-07 15:45 | 41.50119 | 19.70913 | 2777 ft | 272 kts | 355° |
| 2026-05-07 15:45 | 41.52080 | 19.70649 | 3340 ft | 291 kts | 355° |
| 2026-05-07 15:45 | 41.54129 | 19.70421 | 4210 ft | 296 kts | 356° |
| 2026-05-07 15:45 | 41.56176 | 19.70235 | 5334 ft | 294 kts | 355° |
| 2026-05-07 15:46 | 41.60013 | 19.68652 | 7580 ft | 286 kts | 332° |
| 2026-05-07 15:46 | 41.61797 | 19.67479 | 8688 ft | 286 kts | 332° |
| 2026-05-07 15:46 | 41.63599 | 19.66309 | 9707 ft | 289 kts | 332° |
| 2026-05-07 15:47 | 41.65441 | 19.65147 | 10511 ft | 299 kts | 332° |
| 2026-05-07 15:47 | 41.67398 | 19.63937 | 10910 ft | 322 kts | 333° |
| 2026-05-07 15:47 | 41.69496 | 19.62664 | 11439 ft | 338 kts | 333° |
| 2026-05-07 15:47 | 41.71664 | 19.61362 | 12228 ft | 345 kts | 333° |
| 2026-05-07 15:48 | 41.73868 | 19.60041 | 13127 ft | 348 kts | 333° |
| 2026-05-07 15:48 | 41.76081 | 19.58714 | 14022 ft | 350 kts | 333° |
| 2026-05-07 15:48 | 41.78317 | 19.57369 | 14776 ft | 354 kts | 333° |
| 2026-05-07 15:48 | 41.80579 | 19.56007 | 15535 ft | 359 kts | 333° |
| 2026-05-07 15:49 | 41.82870 | 19.54626 | 16301 ft | 362 kts | 333° |
| 2026-05-07 15:49 | 41.85183 | 19.53231 | 17080 ft | 366 kts | 333° |
| 2026-05-07 15:49 | 41.87517 | 19.51821 | 17822 ft | 370 kts | 333° |
| 2026-05-07 15:49 | 41.89840 | 19.50418 | 18510 ft | 373 kts | 333° |
| 2026-05-07 15:50 | 41.92225 | 19.48975 | 19132 ft | 377 kts | 333° |
| 2026-05-07 15:50 | 41.94626 | 19.47521 | 19765 ft | 380 kts | 333° |
| 2026-05-07 15:50 | 41.97038 | 19.46026 | 20401 ft | 383 kts | 331° |
| 2026-05-07 15:50 | 41.99539 | 19.44568 | 20961 ft | 391 kts | 334° |
| 2026-05-07 15:51 | 42.02060 | 19.43263 | 21537 ft | 395 kts | 335° |
| 2026-05-07 15:51 | 42.04662 | 19.42013 | 22158 ft | 399 kts | 336° |
| 2026-05-07 15:51 | 42.07297 | 19.40789 | 22782 ft | 402 kts | 337° |
| 2026-05-07 15:51 | 42.09952 | 19.39566 | 23366 ft | 405 kts | 337° |
| 2026-05-07 15:52 | 42.12633 | 19.38323 | 23874 ft | 409 kts | 336° |
| 2026-05-07 15:52 | 42.15364 | 19.37047 | 24384 ft | 411 kts | 336° |
| 2026-05-07 15:52 | 42.18032 | 19.35790 | 24882 ft | 413 kts | 336° |
| 2026-05-07 15:52 | 42.20759 | 19.34496 | 25366 ft | 415 kts | 336° |
| 2026-05-07 15:53 | 42.23480 | 19.33188 | 25843 ft | 416 kts | 335° |
| 2026-05-07 15:53 | 42.26198 | 19.31835 | 26320 ft | 417 kts | 335° |
| 2026-05-07 15:53 | 42.28923 | 19.30450 | 26782 ft | 419 kts | 334° |
| 2026-05-07 15:53 | 42.31652 | 19.29051 | 27225 ft | 420 kts | 334° |
| 2026-05-07 15:54 | 42.34388 | 19.27643 | 27655 ft | 422 kts | 334° |
| 2026-05-07 15:54 | 42.37051 | 19.25997 | 28086 ft | 419 kts | 326° |
| 2026-05-07 15:54 | 42.39494 | 19.23884 | 28494 ft | 416 kts | 318° |
| 2026-05-07 15:54 | 42.41713 | 19.21365 | 28821 ft | 417 kts | 314° |
| 2026-05-07 15:55 | 42.43848 | 19.18706 | 29217 ft | 417 kts | 312° |
| 2026-05-07 15:55 | 42.45939 | 19.15973 | 29633 ft | 418 kts | 311° |
| 2026-05-07 15:55 | 42.48011 | 19.13202 | 29993 ft | 419 kts | 311° |
| 2026-05-07 15:55 | 42.50080 | 19.10417 | 30390 ft | 419 kts | 310° |
| 2026-05-07 15:56 | 42.52149 | 19.07639 | 30845 ft | 417 kts | 310° |
| 2026-05-07 15:56 | 42.54206 | 19.04890 | 31248 ft | 414 kts | 310° |
| 2026-05-07 15:56 | 42.56268 | 19.02144 | 31509 ft | 413 kts | 310° |
| 2026-05-07 15:56 | 42.58313 | 18.99418 | 31773 ft | 412 kts | 310° |
| 2026-05-07 15:57 | 42.60359 | 18.96690 | 32109 ft | 412 kts | 310° |
| 2026-05-07 15:57 | 42.62397 | 18.93974 | 32497 ft | 410 kts | 310° |
| 2026-05-07 15:57 | 42.64425 | 18.91270 | 32914 ft | 409 kts | 310° |
| 2026-05-07 15:57 | 42.66455 | 18.88559 | 33232 ft | 409 kts | 310° |
| 2026-05-07 15:58 | 42.68482 | 18.85852 | 33625 ft | 407 kts | 310° |
| 2026-05-07 15:58 | 42.70492 | 18.83168 | 34054 ft | 404 kts | 309° |
| 2026-05-07 15:58 | 42.72490 | 18.80497 | 34365 ft | 402 kts | 309° |
| 2026-05-07 15:58 | 42.74488 | 18.77819 | 34586 ft | 403 kts | 309° |
| 2026-05-07 15:59 | 42.76489 | 18.75134 | 34790 ft | 404 kts | 309° |
| 2026-05-07 15:59 | 42.78462 | 18.72484 | 35007 ft | 404 kts | 309° |
| 2026-05-07 15:59 | 42.80464 | 18.69794 | 35221 ft | 404 kts | 309° |
| 2026-05-07 15:59 | 42.82468 | 18.67098 | 35453 ft | 404 kts | 309° |
| 2026-05-07 16:00 | 42.84469 | 18.64405 | 35671 ft | 405 kts | 309° |
| 2026-05-07 16:00 | 42.86472 | 18.61707 | 35888 ft | 405 kts | 309° |
| 2026-05-07 16:00 | 42.88472 | 18.59010 | 36081 ft | 405 kts | 309° |
| 2026-05-07 16:00 | 42.90475 | 18.56305 | 36244 ft | 407 kts | 309° |
| 2026-05-07 16:01 | 42.92497 | 18.53571 | 36333 ft | 409 kts | 309° |
| 2026-05-07 16:01 | 42.94517 | 18.50839 | 36518 ft | 409 kts | 309° |
| 2026-05-07 16:01 | 42.96541 | 18.48099 | 36718 ft | 409 kts | 309° |
| 2026-05-07 16:01 | 42.98564 | 18.45360 | 36913 ft | 409 kts | 309° |
| 2026-05-07 16:02 | 43.00584 | 18.42620 | 37106 ft | 409 kts | 309° |
| 2026-05-07 16:02 | 43.01921 | 18.40805 | 37209 ft | 410 kts | 309° |
| 2026-05-07 16:02 | 43.03971 | 18.38021 | 37358 ft | 410 kts | 309° |
| 2026-05-07 16:02 | 43.05969 | 18.35303 | 37510 ft | 410 kts | 309° |
| 2026-05-07 16:03 | 43.07991 | 18.32549 | 37662 ft | 410 kts | 309° |
| 2026-05-07 16:03 | 43.10012 | 18.29795 | 37825 ft | 410 kts | 309° |
| 2026-05-07 16:03 | 43.12036 | 18.27034 | 37990 ft | 410 kts | 309° |
| 2026-05-07 16:03 | 43.14063 | 18.24266 | 38097 ft | 412 kts | 309° |
| 2026-05-07 16:04 | 43.16086 | 18.21500 | 38082 ft | 412 kts | 309° |
| 2026-05-07 16:04 | 43.20146 | 18.15941 | 38070 ft | 413 kts | 309° |
| 2026-05-07 16:05 | 43.24204 | 18.10377 | 38071 ft | 413 kts | 309° |
| 2026-05-07 16:05 | 43.28261 | 18.04804 | 38078 ft | 413 kts | 309° |
| 2026-05-07 16:06 | 43.32318 | 17.99217 | 38075 ft | 412 kts | 309° |
| 2026-05-07 16:06 | 43.36369 | 17.93632 | 38064 ft | 412 kts | 309° |
| 2026-05-07 16:07 | 43.40414 | 17.88041 | 38079 ft | 413 kts | 309° |
| 2026-05-07 16:07 | 43.44436 | 17.82466 | 38076 ft | 412 kts | 309° |
| 2026-05-07 16:08 | 43.48463 | 17.76875 | 38078 ft | 411 kts | 309° |
| 2026-05-07 16:08 | 43.52490 | 17.71273 | 38076 ft | 411 kts | 309° |
| 2026-05-07 16:09 | 43.56519 | 17.65678 | 38078 ft | 411 kts | 309° |
| 2026-05-07 16:09 | 43.60616 | 17.60136 | 38076 ft | 412 kts | 310° |
| 2026-05-07 16:10 | 43.64729 | 17.54621 | 38068 ft | 413 kts | 310° |
| 2026-05-07 16:10 | 43.68846 | 17.49085 | 38076 ft | 413 kts | 310° |
| 2026-05-07 16:11 | 43.72962 | 17.43528 | 38092 ft | 413 kts | 310° |
| 2026-05-07 16:11 | 43.77069 | 17.37967 | 38076 ft | 413 kts | 310° |
| 2026-05-07 16:12 | 43.81143 | 17.32438 | 38079 ft | 413 kts | 310° |
| 2026-05-07 16:12 | 43.85242 | 17.26865 | 38078 ft | 414 kts | 310° |
| 2026-05-07 16:13 | 43.89381 | 17.21218 | 38081 ft | 421 kts | 310° |
| 2026-05-07 16:13 | 43.93593 | 17.15462 | 38080 ft | 429 kts | 310° |
| 2026-05-07 16:14 | 43.97887 | 17.09583 | 38069 ft | 436 kts | 310° |
| 2026-05-07 16:14 | 44.02230 | 17.03633 | 38064 ft | 439 kts | 310° |
| 2026-05-07 16:15 | 44.06575 | 16.97671 | 38064 ft | 438 kts | 310° |
| 2026-05-07 16:15 | 44.10913 | 16.91700 | 38065 ft | 438 kts | 310° |
| 2026-05-07 16:16 | 44.15249 | 16.85715 | 38062 ft | 440 kts | 310° |
| 2026-05-07 16:16 | 44.19577 | 16.79727 | 38053 ft | 441 kts | 310° |
| 2026-05-07 16:17 | 44.23935 | 16.73686 | 38044 ft | 441 kts | 310° |
| 2026-05-07 16:17 | 44.28289 | 16.67639 | 38044 ft | 441 kts | 309° |
| 2026-05-07 16:18 | 44.32637 | 16.61583 | 38040 ft | 441 kts | 310° |
| 2026-05-07 16:18 | 44.36979 | 16.55522 | 38062 ft | 441 kts | 309° |
| 2026-05-07 16:19 | 44.41318 | 16.49454 | 38030 ft | 441 kts | 309° |
| 2026-05-07 16:19 | 44.45656 | 16.43374 | 38041 ft | 441 kts | 309° |
| 2026-05-07 16:20 | 44.49990 | 16.37287 | 38025 ft | 441 kts | 309° |
| 2026-05-07 16:20 | 44.54329 | 16.31175 | 38029 ft | 443 kts | 309° |
| 2026-05-07 16:21 | 44.58675 | 16.25041 | 38030 ft | 444 kts | 309° |
| 2026-05-07 16:21 | 44.63028 | 16.18885 | 38028 ft | 444 kts | 309° |
| 2026-05-07 16:22 | 44.67349 | 16.12761 | 38023 ft | 444 kts | 309° |
| 2026-05-07 16:22 | 44.71701 | 16.06577 | 38017 ft | 444 kts | 309° |
| 2026-05-07 16:23 | 44.76049 | 16.00385 | 38014 ft | 445 kts | 309° |
| 2026-05-07 16:23 | 44.80399 | 15.94178 | 38017 ft | 446 kts | 309° |
| 2026-05-07 16:24 | 44.84749 | 15.87956 | 38009 ft | 446 kts | 309° |
| 2026-05-07 16:24 | 44.89097 | 15.81720 | 38008 ft | 446 kts | 309° |
| 2026-05-07 16:25 | 44.93544 | 15.75598 | 38004 ft | 451 kts | 315° |
| 2026-05-07 16:25 | 44.98857 | 15.70721 | 38002 ft | 458 kts | 324° |
| 2026-05-07 16:26 | 45.04431 | 15.66321 | 37995 ft | 460 kts | 325° |
| 2026-05-07 16:26 | 45.10056 | 15.62007 | 37998 ft | 460 kts | 325° |
| 2026-05-07 16:27 | 45.15642 | 15.57697 | 37989 ft | 460 kts | 325° |
| 2026-05-07 16:27 | 45.21282 | 15.53304 | 37993 ft | 459 kts | 324° |
| 2026-05-07 16:28 | 45.26841 | 15.48951 | 37984 ft | 459 kts | 324° |
| 2026-05-07 16:28 | 45.32427 | 15.44564 | 37979 ft | 459 kts | 325° |
| 2026-05-07 16:29 | 45.38018 | 15.40165 | 37968 ft | 459 kts | 324° |
| 2026-05-07 16:29 | 45.43605 | 15.35760 | 37967 ft | 459 kts | 324° |
| 2026-05-07 16:30 | 45.49190 | 15.31346 | 37965 ft | 459 kts | 324° |
| 2026-05-07 16:30 | 45.54770 | 15.26928 | 37979 ft | 459 kts | 324° |
| 2026-05-07 16:31 | 45.60360 | 15.22490 | 37978 ft | 459 kts | 324° |
| 2026-05-07 16:31 | 45.65948 | 15.18043 | 37970 ft | 460 kts | 324° |
| 2026-05-07 16:32 | 45.71542 | 15.13582 | 37963 ft | 459 kts | 324° |
| 2026-05-07 16:32 | 45.77125 | 15.09120 | 37958 ft | 459 kts | 324° |
| 2026-05-07 16:33 | 45.82708 | 15.04647 | 37957 ft | 460 kts | 324° |
| 2026-05-07 16:33 | 45.88260 | 15.00189 | 37957 ft | 460 kts | 324° |
| 2026-05-07 16:34 | 45.93845 | 14.95695 | 37956 ft | 460 kts | 324° |
| 2026-05-07 16:34 | 45.99434 | 14.91186 | 37971 ft | 460 kts | 324° |
| 2026-05-07 16:35 | 46.05017 | 14.86671 | 37954 ft | 460 kts | 324° |
| 2026-05-07 16:35 | 46.10609 | 14.82138 | 37950 ft | 460 kts | 324° |
| 2026-05-07 16:36 | 46.16194 | 14.77601 | 37955 ft | 460 kts | 324° |
| 2026-05-07 16:36 | 46.21775 | 14.73058 | 37954 ft | 460 kts | 324° |
| 2026-05-07 16:37 | 46.27327 | 14.68529 | 37968 ft | 461 kts | 324° |
| 2026-05-07 16:37 | 46.32915 | 14.63958 | 37953 ft | 461 kts | 325° |
| 2026-05-07 16:38 | 46.38494 | 14.59378 | 37950 ft | 461 kts | 324° |
| 2026-05-07 16:38 | 46.44069 | 14.54798 | 37937 ft | 460 kts | 325° |
| 2026-05-07 16:39 | 46.49642 | 14.50203 | 37954 ft | 461 kts | 325° |
| 2026-05-07 16:39 | 46.55220 | 14.45593 | 37961 ft | 461 kts | 324° |
| 2026-05-07 16:40 | 46.60793 | 14.40980 | 37967 ft | 461 kts | 325° |
| 2026-05-07 16:40 | 46.66369 | 14.36353 | 37968 ft | 461 kts | 325° |
| 2026-05-07 16:41 | 46.71949 | 14.31710 | 37970 ft | 461 kts | 325° |
| 2026-05-07 16:41 | 46.77513 | 14.27069 | 37961 ft | 461 kts | 325° |
| 2026-05-07 16:42 | 46.83052 | 14.22440 | 37951 ft | 461 kts | 325° |
| 2026-05-07 16:42 | 46.88615 | 14.17782 | 37959 ft | 461 kts | 325° |
| 2026-05-07 16:43 | 46.94178 | 14.13105 | 37964 ft | 461 kts | 325° |
| 2026-05-07 16:43 | 46.99742 | 14.08417 | 37955 ft | 462 kts | 325° |
| 2026-05-07 16:44 | 47.05310 | 14.03718 | 37983 ft | 461 kts | 325° |
| 2026-05-07 16:44 | 47.10875 | 13.99010 | 37976 ft | 461 kts | 325° |
| 2026-05-07 16:45 | 47.15492 | 13.95095 | 37994 ft | 461 kts | 325° |
| 2026-05-07 16:45 | 47.21050 | 13.90371 | 38006 ft | 462 kts | 325° |
| 2026-05-07 16:46 | 47.26616 | 13.85628 | 38007 ft | 462 kts | 325° |
| 2026-05-07 16:46 | 47.32185 | 13.80870 | 38012 ft | 463 kts | 325° |
| 2026-05-07 16:47 | 47.37754 | 13.76103 | 38019 ft | 462 kts | 325° |
| 2026-05-07 16:47 | 47.43315 | 13.71332 | 38019 ft | 463 kts | 325° |
| 2026-05-07 16:48 | 47.48851 | 13.66567 | 38017 ft | 464 kts | 325° |
| 2026-05-07 16:48 | 47.54423 | 13.61761 | 38017 ft | 464 kts | 325° |
| 2026-05-07 16:49 | 47.60005 | 13.56933 | 38017 ft | 464 kts | 325° |
| 2026-05-07 16:49 | 47.65571 | 13.52109 | 38033 ft | 464 kts | 326° |
| 2026-05-07 16:50 | 47.71137 | 13.47272 | 38021 ft | 464 kts | 326° |
| 2026-05-07 16:50 | 47.76703 | 13.42424 | 38019 ft | 463 kts | 326° |
| 2026-05-07 16:51 | 47.82265 | 13.37566 | 38021 ft | 463 kts | 326° |
| 2026-05-07 16:51 | 47.87820 | 13.32702 | 38035 ft | 463 kts | 326° |
| 2026-05-07 16:52 | 47.93385 | 13.27816 | 38026 ft | 464 kts | 326° |
| 2026-05-07 16:52 | 47.98957 | 13.22913 | 38020 ft | 464 kts | 326° |
| 2026-05-07 16:53 | 48.04509 | 13.18016 | 38021 ft | 463 kts | 326° |
| 2026-05-07 16:53 | 48.10053 | 13.13112 | 38014 ft | 463 kts | 326° |
| 2026-05-07 16:54 | 48.15591 | 13.08201 | 38014 ft | 463 kts | 326° |
| 2026-05-07 16:54 | 48.21125 | 13.03273 | 38014 ft | 462 kts | 324° |
| 2026-05-07 16:55 | 48.26178 | 12.97441 | 38013 ft | 458 kts | 316° |
| 2026-05-07 16:55 | 48.31001 | 12.91213 | 38020 ft | 457 kts | 315° |
| 2026-05-07 16:56 | 48.35768 | 12.84902 | 38023 ft | 456 kts | 315° |
| 2026-05-07 16:56 | 48.42887 | 12.75461 | 38019 ft | 457 kts | 315° |
| 2026-05-07 16:57 | 48.47658 | 12.69137 | 38016 ft | 457 kts | 315° |
| 2026-05-07 16:57 | 48.52434 | 12.62797 | 38018 ft | 457 kts | 315° |
| 2026-05-07 16:58 | 48.57203 | 12.56449 | 38017 ft | 457 kts | 315° |
| 2026-05-07 16:58 | 48.61971 | 12.50084 | 38021 ft | 457 kts | 315° |
| 2026-05-07 16:59 | 48.66734 | 12.43709 | 38020 ft | 458 kts | 315° |
| 2026-05-07 16:59 | 48.71506 | 12.37305 | 38022 ft | 458 kts | 315° |
| 2026-05-07 17:00 | 48.76275 | 12.30889 | 38029 ft | 458 kts | 315° |
| 2026-05-07 17:00 | 48.81034 | 12.24468 | 38035 ft | 458 kts | 315° |
| 2026-05-07 17:01 | 48.85782 | 12.18048 | 38032 ft | 457 kts | 315° |
| 2026-05-07 17:01 | 48.90530 | 12.11608 | 38041 ft | 458 kts | 315° |
| 2026-05-07 17:02 | 48.95277 | 12.05152 | 38039 ft | 458 kts | 315° |
| 2026-05-07 17:02 | 49.00025 | 11.98678 | 38034 ft | 458 kts | 315° |
| 2026-05-07 17:03 | 49.04779 | 11.92179 | 38033 ft | 458 kts | 315° |
| 2026-05-07 17:03 | 49.09517 | 11.85685 | 38041 ft | 458 kts | 315° |
| 2026-05-07 17:04 | 49.14231 | 11.79207 | 38036 ft | 458 kts | 315° |
| 2026-05-07 17:04 | 49.18971 | 11.72673 | 38028 ft | 459 kts | 315° |
| 2026-05-07 17:05 | 49.23719 | 11.66113 | 38036 ft | 459 kts | 315° |
| 2026-05-07 17:05 | 49.28454 | 11.59552 | 38037 ft | 459 kts | 315° |
| 2026-05-07 17:06 | 49.33189 | 11.52974 | 38041 ft | 459 kts | 315° |
| 2026-05-07 17:06 | 49.37909 | 11.46399 | 38043 ft | 459 kts | 315° |
| 2026-05-07 17:07 | 49.42642 | 11.39787 | 38046 ft | 459 kts | 315° |
| 2026-05-07 17:07 | 49.47364 | 11.33172 | 38048 ft | 460 kts | 315° |
| 2026-05-07 17:08 | 49.52061 | 11.26576 | 38046 ft | 460 kts | 315° |
| 2026-05-07 17:08 | 49.56993 | 11.20189 | 38048 ft | 461 kts | 320° |
| 2026-05-07 17:09 | 49.62089 | 11.14196 | 38047 ft | 461 kts | 321° |
| 2026-05-07 17:09 | 49.67192 | 11.08289 | 38050 ft | 461 kts | 321° |
| 2026-05-07 17:10 | 49.72327 | 11.02338 | 38047 ft | 462 kts | 321° |
| 2026-05-07 17:10 | 49.77463 | 10.96357 | 38043 ft | 462 kts | 321° |
| 2026-05-07 17:11 | 49.82591 | 10.90362 | 38044 ft | 462 kts | 321° |
| 2026-05-07 17:11 | 49.87713 | 10.84355 | 38039 ft | 461 kts | 321° |
| 2026-05-07 17:12 | 49.92826 | 10.78342 | 38042 ft | 461 kts | 321° |
| 2026-05-07 17:12 | 49.97938 | 10.72313 | 38041 ft | 461 kts | 321° |
| 2026-05-07 17:13 | 50.03049 | 10.66271 | 38035 ft | 462 kts | 321° |
| 2026-05-07 17:13 | 50.08159 | 10.60213 | 38046 ft | 462 kts | 321° |
| 2026-05-07 17:14 | 50.13266 | 10.54141 | 38036 ft | 461 kts | 320° |
| 2026-05-07 17:14 | 50.18361 | 10.48068 | 38048 ft | 461 kts | 321° |
| 2026-05-07 17:15 | 50.23446 | 10.41990 | 38043 ft | 461 kts | 321° |
| 2026-05-07 17:15 | 50.28540 | 10.35883 | 38042 ft | 461 kts | 320° |
| 2026-05-07 17:16 | 50.33613 | 10.29744 | 38045 ft | 461 kts | 317° |
| 2026-05-07 17:16 | 50.38082 | 10.22603 | 38047 ft | 458 kts | 310° |
| 2026-05-07 17:17 | 50.42268 | 10.15078 | 38048 ft | 458 kts | 309° |
| 2026-05-07 17:17 | 50.46394 | 10.07462 | 38050 ft | 458 kts | 308° |
| 2026-05-07 17:18 | 50.50516 | 9.99836 | 38050 ft | 458 kts | 309° |
| 2026-05-07 17:18 | 50.54649 | 9.92200 | 38053 ft | 458 kts | 309° |
| 2026-05-07 17:19 | 50.58781 | 9.84558 | 38055 ft | 458 kts | 309° |
| 2026-05-07 17:19 | 50.62909 | 9.76902 | 38056 ft | 458 kts | 308° |
| 2026-05-07 17:20 | 50.67033 | 9.69229 | 38057 ft | 458 kts | 308° |
| 2026-05-07 17:20 | 50.71141 | 9.61562 | 38055 ft | 458 kts | 308° |
| 2026-05-07 17:21 | 50.75224 | 9.53920 | 38056 ft | 458 kts | 308° |
| 2026-05-07 17:21 | 50.79326 | 9.46218 | 38056 ft | 458 kts | 308° |
| 2026-05-07 17:22 | 50.83423 | 9.38504 | 38055 ft | 458 kts | 308° |
| 2026-05-07 17:22 | 50.87515 | 9.30776 | 38065 ft | 458 kts | 308° |
| 2026-05-07 17:23 | 50.91597 | 9.23042 | 38068 ft | 458 kts | 308° |
| 2026-05-07 17:23 | 50.95676 | 9.15292 | 38069 ft | 457 kts | 308° |
| 2026-05-07 17:24 | 50.99752 | 9.07525 | 38070 ft | 458 kts | 308° |
| 2026-05-07 17:24 | 51.03816 | 8.99755 | 38064 ft | 453 kts | 308° |
| 2026-05-07 17:25 | 51.05808 | 8.95943 | 38059 ft | 442 kts | 308° |
| 2026-05-07 17:25 | 51.07760 | 8.92200 | 38065 ft | 437 kts | 308° |
| 2026-05-07 17:25 | 51.11622 | 8.84773 | 38068 ft | 435 kts | 308° |
| 2026-05-07 17:26 | 51.14811 | 8.78587 | 38064 ft | 435 kts | 307° |
| 2026-05-07 17:26 | 51.18611 | 8.71081 | 38061 ft | 435 kts | 307° |
| 2026-05-07 17:27 | 51.22400 | 8.63551 | 38068 ft | 435 kts | 307° |
| 2026-05-07 17:27 | 51.26184 | 8.56019 | 38073 ft | 435 kts | 307° |
| 2026-05-07 17:28 | 51.29964 | 8.48482 | 38062 ft | 435 kts | 307° |
| 2026-05-07 17:28 | 51.33948 | 8.41199 | 38074 ft | 436 kts | 312° |
| 2026-05-07 17:29 | 51.38222 | 8.34304 | 37855 ft | 436 kts | 313° |
| 2026-05-07 17:29 | 51.40363 | 8.30875 | 37580 ft | 436 kts | 313° |
| 2026-05-07 17:29 | 51.42479 | 8.27489 | 37266 ft | 435 kts | 313° |
| 2026-05-07 17:30 | 51.44617 | 8.24065 | 36920 ft | 434 kts | 313° |
| 2026-05-07 17:30 | 51.46753 | 8.20640 | 36616 ft | 434 kts | 314° |
| 2026-05-07 17:30 | 51.48880 | 8.17227 | 36309 ft | 433 kts | 314° |
| 2026-05-07 17:30 | 51.50997 | 8.13825 | 36012 ft | 433 kts | 314° |
| 2026-05-07 17:31 | 51.53124 | 8.10403 | 35728 ft | 432 kts | 314° |
| 2026-05-07 17:31 | 51.55246 | 8.06983 | 35426 ft | 432 kts | 314° |
| 2026-05-07 17:31 | 51.57363 | 8.03568 | 35140 ft | 432 kts | 314° |
| 2026-05-07 17:31 | 51.59486 | 8.00137 | 34854 ft | 432 kts | 314° |
| 2026-05-07 17:32 | 51.61599 | 7.96719 | 34570 ft | 431 kts | 314° |
| 2026-05-07 17:32 | 51.63717 | 7.93288 | 34290 ft | 431 kts | 314° |
| 2026-05-07 17:32 | 51.65819 | 7.89876 | 33999 ft | 430 kts | 314° |
| 2026-05-07 17:32 | 51.67926 | 7.86454 | 33663 ft | 428 kts | 314° |
| 2026-05-07 17:33 | 51.70013 | 7.83058 | 33325 ft | 425 kts | 314° |
| 2026-05-07 17:33 | 51.72093 | 7.79670 | 33001 ft | 423 kts | 314° |
| 2026-05-07 17:33 | 51.74156 | 7.76305 | 32678 ft | 421 kts | 313° |
| 2026-05-07 17:33 | 51.76212 | 7.72946 | 32359 ft | 419 kts | 313° |
| 2026-05-07 17:34 | 51.78244 | 7.69621 | 32038 ft | 416 kts | 313° |
| 2026-05-07 17:34 | 51.80275 | 7.66293 | 31740 ft | 414 kts | 313° |
| 2026-05-07 17:34 | 51.82270 | 7.63021 | 31440 ft | 413 kts | 313° |
| 2026-05-07 17:34 | 51.84301 | 7.59683 | 31121 ft | 411 kts | 313° |
| 2026-05-07 17:35 | 51.86302 | 7.56391 | 30828 ft | 409 kts | 313° |
| 2026-05-07 17:35 | 51.88288 | 7.53120 | 30526 ft | 407 kts | 313° |
| 2026-05-07 17:35 | 51.90267 | 7.49856 | 30238 ft | 404 kts | 313° |
| 2026-05-07 17:35 | 51.92205 | 7.46655 | 29901 ft | 402 kts | 313° |
| 2026-05-07 17:36 | 51.94183 | 7.43383 | 29544 ft | 400 kts | 313° |
| 2026-05-07 17:36 | 51.96100 | 7.40209 | 29211 ft | 398 kts | 313° |
| 2026-05-07 17:36 | 51.98055 | 7.36968 | 28852 ft | 396 kts | 313° |
| 2026-05-07 17:36 | 51.99952 | 7.33818 | 28537 ft | 394 kts | 313° |
| 2026-05-07 17:37 | 52.01865 | 7.30639 | 28211 ft | 392 kts | 313° |
| 2026-05-07 17:37 | 52.03766 | 7.27475 | 27887 ft | 390 kts | 312° |
| 2026-05-07 17:37 | 52.05614 | 7.24252 | 27542 ft | 387 kts | 307° |
| 2026-05-07 17:37 | 52.07148 | 7.20680 | 27139 ft | 384 kts | 298° |
| 2026-05-07 17:38 | 52.08368 | 7.16850 | 26719 ft | 381 kts | 294° |
| 2026-05-07 17:38 | 52.09485 | 7.12958 | 26305 ft | 378 kts | 293° |
| 2026-05-07 17:38 | 52.10569 | 7.09073 | 25895 ft | 376 kts | 293° |
| 2026-05-07 17:38 | 52.11633 | 7.05222 | 25497 ft | 374 kts | 292° |
| 2026-05-07 17:39 | 52.12693 | 7.01369 | 25099 ft | 372 kts | 292° |
| 2026-05-07 17:39 | 52.13744 | 6.97538 | 24713 ft | 370 kts | 292° |
| 2026-05-07 17:39 | 52.14789 | 6.93725 | 24329 ft | 367 kts | 292° |
| 2026-05-07 17:39 | 52.15824 | 6.89936 | 23951 ft | 365 kts | 292° |
| 2026-05-07 17:40 | 52.16854 | 6.86163 | 23563 ft | 364 kts | 293° |
| 2026-05-07 17:40 | 52.17876 | 6.82413 | 23117 ft | 362 kts | 293° |
| 2026-05-07 17:40 | 52.18894 | 6.78669 | 22679 ft | 360 kts | 293° |
| 2026-05-07 17:40 | 52.19903 | 6.74954 | 22241 ft | 358 kts | 293° |
| 2026-05-07 17:41 | 52.20905 | 6.71260 | 21822 ft | 356 kts | 293° |
| 2026-05-07 17:41 | 52.21902 | 6.67577 | 21397 ft | 354 kts | 293° |
| 2026-05-07 17:41 | 52.22890 | 6.63923 | 20984 ft | 352 kts | 293° |
| 2026-05-07 17:41 | 52.23872 | 6.60281 | 20573 ft | 350 kts | 293° |
| 2026-05-07 17:42 | 52.24849 | 6.56656 | 20170 ft | 348 kts | 293° |
| 2026-05-07 17:42 | 52.25819 | 6.53052 | 19772 ft | 346 kts | 293° |
| 2026-05-07 17:42 | 52.26781 | 6.49468 | 19377 ft | 344 kts | 293° |
| 2026-05-07 17:42 | 52.27741 | 6.45891 | 18987 ft | 342 kts | 293° |
| 2026-05-07 17:43 | 52.28691 | 6.42345 | 18616 ft | 340 kts | 292° |
| 2026-05-07 17:43 | 52.29634 | 6.38813 | 18212 ft | 339 kts | 293° |
| 2026-05-07 17:43 | 52.30574 | 6.35291 | 17785 ft | 337 kts | 292° |
| 2026-05-07 17:43 | 52.31507 | 6.31793 | 17337 ft | 335 kts | 293° |
| 2026-05-07 17:44 | 52.32433 | 6.28314 | 16925 ft | 333 kts | 292° |
| 2026-05-07 17:44 | 52.33352 | 6.24857 | 16505 ft | 331 kts | 292° |
| 2026-05-07 17:44 | 52.34265 | 6.21415 | 16095 ft | 329 kts | 292° |
| 2026-05-07 17:44 | 52.35172 | 6.17994 | 15691 ft | 326 kts | 292° |
| 2026-05-07 17:45 | 52.36069 | 6.14602 | 15288 ft | 323 kts | 292° |
| 2026-05-07 17:45 | 52.36957 | 6.11240 | 14894 ft | 321 kts | 292° |
| 2026-05-07 17:45 | 52.37841 | 6.07886 | 14495 ft | 320 kts | 292° |
| 2026-05-07 17:45 | 52.38719 | 6.04549 | 14119 ft | 319 kts | 292° |
| 2026-05-07 17:46 | 52.39593 | 6.01228 | 13711 ft | 317 kts | 292° |
| 2026-05-07 17:46 | 52.40460 | 5.97927 | 13293 ft | 314 kts | 292° |
| 2026-05-07 17:46 | 52.41322 | 5.94643 | 12859 ft | 311 kts | 292° |
| 2026-05-07 17:46 | 52.42161 | 5.91436 | 12443 ft | 308 kts | 292° |
| 2026-05-07 17:47 | 52.43003 | 5.88215 | 12032 ft | 306 kts | 292° |
| 2026-05-07 17:47 | 52.43837 | 5.85021 | 11614 ft | 304 kts | 292° |
| 2026-05-07 17:47 | 52.44663 | 5.81850 | 11220 ft | 302 kts | 292° |
| 2026-05-07 17:47 | 52.45483 | 5.78702 | 10817 ft | 297 kts | 292° |
| 2026-05-07 17:48 | 52.46282 | 5.75624 | 10416 ft | 291 kts | 292° |
| 2026-05-07 17:48 | 52.47068 | 5.72598 | 10091 ft | 285 kts | 292° |
| 2026-05-07 17:48 | 52.47843 | 5.69616 | 9832 ft | 283 kts | 292° |
| 2026-05-07 17:48 | 52.48610 | 5.66655 | 9559 ft | 281 kts | 292° |
| 2026-05-07 17:49 | 52.49374 | 5.63705 | 9325 ft | 280 kts | 292° |
| 2026-05-07 17:49 | 52.50130 | 5.60772 | 9116 ft | 279 kts | 291° |
| 2026-05-07 17:49 | 52.50728 | 5.57749 | 8907 ft | 278 kts | 281° |
| 2026-05-07 17:49 | 52.50891 | 5.54612 | 8717 ft | 277 kts | 264° |
| 2026-05-07 17:50 | 52.50452 | 5.51546 | 8590 ft | 276 kts | 249° |
| 2026-05-07 17:50 | 52.49651 | 5.48683 | 8460 ft | 276 kts | 241° |
| 2026-05-07 17:50 | 52.48660 | 5.45995 | 8334 ft | 275 kts | 236° |
| 2026-05-07 17:50 | 52.47585 | 5.43415 | 8208 ft | 273 kts | 234° |
| 2026-05-07 17:51 | 52.46484 | 5.40881 | 8059 ft | 273 kts | 234° |
| 2026-05-07 17:51 | 52.45386 | 5.38347 | 7870 ft | 272 kts | 234° |
| 2026-05-07 17:51 | 52.44300 | 5.35793 | 7685 ft | 273 kts | 234° |
| 2026-05-07 17:51 | 52.43232 | 5.33228 | 7491 ft | 271 kts | 235° |
| 2026-05-07 17:52 | 52.42182 | 5.30666 | 7286 ft | 270 kts | 235° |
| 2026-05-07 17:52 | 52.41143 | 5.28108 | 7083 ft | 269 kts | 235° |
| 2026-05-07 17:52 | 52.40113 | 5.25564 | 6879 ft | 268 kts | 235° |
| 2026-05-07 17:52 | 52.39082 | 5.23014 | 6681 ft | 268 kts | 236° |
| 2026-05-07 17:53 | 52.38053 | 5.20472 | 6485 ft | 268 kts | 235° |
| 2026-05-07 17:53 | 52.37035 | 5.17964 | 6265 ft | 267 kts | 235° |
| 2026-05-07 17:53 | 52.35997 | 5.15405 | 6067 ft | 266 kts | 234° |
| 2026-05-07 17:53 | 52.34973 | 5.12893 | 5859 ft | 265 kts | 235° |
| 2026-05-07 17:54 | 52.33949 | 5.10368 | 5650 ft | 266 kts | 236° |
| 2026-05-07 17:54 | 52.32974 | 5.07809 | 5441 ft | 266 kts | 237° |
| 2026-05-07 17:54 | 52.32003 | 5.05233 | 5238 ft | 266 kts | 237° |
| 2026-05-07 17:54 | 52.31032 | 5.02657 | 5031 ft | 266 kts | 237° |
| 2026-05-07 17:55 | 52.30059 | 5.00083 | 4821 ft | 266 kts | 237° |
| 2026-05-07 17:55 | 52.29090 | 4.97517 | 4626 ft | 266 kts | 237° |
| 2026-05-07 17:55 | 52.28112 | 4.94951 | 4412 ft | 266 kts | 237° |
| 2026-05-07 17:55 | 52.27137 | 4.92399 | 4205 ft | 265 kts | 237° |
| 2026-05-07 17:56 | 52.26164 | 4.89837 | 3995 ft | 265 kts | 237° |
| 2026-05-07 17:56 | 52.25202 | 4.87274 | 3792 ft | 265 kts | 237° |
| 2026-05-07 17:56 | 52.24237 | 4.84698 | 3597 ft | 266 kts | 237° |
| 2026-05-07 17:56 | 52.23271 | 4.82123 | 3389 ft | 267 kts | 238° |
| 2026-05-07 17:57 | 52.22294 | 4.79538 | 3187 ft | 267 kts | 238° |
| 2026-05-07 17:57 | 52.21649 | 4.77830 | 3051 ft | 267 kts | 237° |
| 2026-05-07 17:57 | 52.20360 | 4.74432 | 2994 ft | 266 kts | 237° |
| 2026-05-07 17:57 | 52.19385 | 4.71861 | 2990 ft | 267 kts | 237° |
| 2026-05-07 17:58 | 52.18417 | 4.69303 | 2989 ft | 260 kts | 237° |
| 2026-05-07 17:58 | 52.17496 | 4.66861 | 2825 ft | 248 kts | 238° |
| 2026-05-07 17:58 | 52.16610 | 4.64519 | 2643 ft | 238 kts | 237° |
| 2026-05-07 17:58 | 52.15750 | 4.62253 | 2520 ft | 234 kts | 237° |
| 2026-05-07 17:59 | 52.14985 | 4.59913 | 2379 ft | 234 kts | 254° |
| 2026-05-07 17:59 | 52.14949 | 4.57379 | 2245 ft | 218 kts | 289° |
| 2026-05-07 17:59 | 52.15704 | 4.55427 | 2127 ft | 196 kts | 321° |
| 2026-05-07 17:59 | 52.16768 | 4.54180 | 2026 ft | 185 kts | 330° |
| 2026-05-07 18:00 | 52.17871 | 4.53106 | 1986 ft | 185 kts | 334° |
| 2026-05-07 18:00 | 52.19088 | 4.52720 | 1981 ft | 178 kts | 12° |
| 2026-05-07 18:00 | 52.20233 | 4.53412 | 1987 ft | 175 kts | 30° |
| 2026-05-07 18:00 | 52.21247 | 4.54481 | 1983 ft | 174 kts | 43° |
| 2026-05-07 18:01 | 52.22039 | 4.55975 | 1983 ft | 174 kts | 56° |
| 2026-05-07 18:01 | 52.22701 | 4.57640 | 1987 ft | 175 kts | 58° |
| 2026-05-07 18:01 | 52.23350 | 4.59320 | 1985 ft | 175 kts | 58° |
| 2026-05-07 18:01 | 52.23998 | 4.60994 | 1874 ft | 178 kts | 58° |
| 2026-05-07 18:02 | 52.25436 | 4.64708 | 1302 ft | 185 kts | 57° |
| 2026-05-07 18:02 | 52.26084 | 4.66390 | 1052 ft | 165 kts | 57° |
| 2026-05-07 18:02 | 52.26682 | 4.67941 | 835 ft | 160 kts | 57° |
| 2026-05-07 18:03 | 52.27269 | 4.69467 | 640 ft | 158 kts | 57° |
| 2026-05-07 18:03 | 52.27837 | 4.70941 | 504 ft | 145 kts | 57° |
| 2026-05-07 18:03 | 52.28438 | 4.72523 | 677 ft | 184 kts | 58° |
| 2026-05-07 18:03 | 52.29162 | 4.74467 | 1083 ft | 216 kts | 58° |
| 2026-05-07 18:04 | 52.29836 | 4.76504 | 1585 ft | 178 kts | 68° |
| 2026-05-07 18:04 | 52.30072 | 4.78260 | 2044 ft | 148 kts | 86° |
| 2026-05-07 18:04 | 52.30064 | 4.79878 | 2421 ft | 138 kts | 92° |
| 2026-05-07 18:04 | 52.30013 | 4.81472 | 2839 ft | 142 kts | 92° |
| 2026-05-07 18:05 | 52.29961 | 4.83087 | 2988 ft | 145 kts | 92° |
| 2026-05-07 18:05 | 52.29664 | 4.84641 | 2972 ft | 151 kts | 131° |
| 2026-05-07 18:05 | 52.28673 | 4.85495 | 2984 ft | 178 kts | 168° |
| 2026-05-07 18:05 | 52.27322 | 4.85607 | 3007 ft | 208 kts | 180° |
| 2026-05-07 18:06 | 52.25854 | 4.85329 | 2988 ft | 215 kts | 198° |
| 2026-05-07 18:06 | 52.24629 | 4.83978 | 2994 ft | 214 kts | 225° |
| 2026-05-07 18:06 | 52.23685 | 4.82110 | 3014 ft | 213 kts | 231° |
| 2026-05-07 18:06 | 52.22803 | 4.80153 | 3005 ft | 215 kts | 232° |
| 2026-05-07 18:07 | 52.21920 | 4.78185 | 2995 ft | 216 kts | 232° |
| 2026-05-07 18:07 | 52.21031 | 4.76203 | 2930 ft | 215 kts | 232° |
| 2026-05-07 18:07 | 52.20148 | 4.74234 | 2814 ft | 215 kts | 232° |
| 2026-05-07 18:07 | 52.19425 | 4.72114 | 2670 ft | 215 kts | 256° |
| 2026-05-07 18:08 | 52.19370 | 4.70520 | 2577 ft | 213 kts | 279° |
| 2026-05-07 18:08 | 52.19997 | 4.68391 | 2453 ft | 209 kts | 316° |
| 2026-05-07 18:08 | 52.21188 | 4.67109 | 2210 ft | 205 kts | 338° |
| 2026-05-07 18:08 | 52.22442 | 4.65991 | 2007 ft | 208 kts | 319° |
| 2026-05-07 18:09 | 52.23165 | 4.63950 | 1985 ft | 213 kts | 283° |
| 2026-05-07 18:09 | 52.23041 | 4.61571 | 1987 ft | 214 kts | 246° |
| 2026-05-07 18:09 | 52.22243 | 4.59535 | 1992 ft | 213 kts | 230° |
| 2026-05-07 18:09 | 52.21283 | 4.57699 | 1987 ft | 212 kts | 227° |
| 2026-05-07 18:10 | 52.20303 | 4.55893 | 1994 ft | 213 kts | 227° |
| 2026-05-07 18:10 | 52.19350 | 4.54134 | 1980 ft | 199 kts | 227° |
| 2026-05-07 18:10 | 52.18443 | 4.52473 | 1982 ft | 195 kts | 228° |
| 2026-05-07 18:10 | 52.17826 | 4.50544 | 1979 ft | 193 kts | 263° |
| 2026-05-07 18:11 | 52.18049 | 4.48449 | 1987 ft | 188 kts | 303° |
| 2026-05-07 18:11 | 52.18993 | 4.47106 | 1986 ft | 180 kts | 344° |
| 2026-05-07 18:11 | 52.20199 | 4.47096 | 1984 ft | 175 kts | 25° |
| 2026-05-07 18:11 | 52.21074 | 4.48379 | 1988 ft | 172 kts | 65° |
| 2026-05-07 18:12 | 52.21313 | 4.50280 | 1997 ft | 173 kts | 87° |
| 2026-05-07 18:12 | 52.21292 | 4.52252 | 2004 ft | 173 kts | 90° |
| 2026-05-07 18:12 | 52.21496 | 4.54163 | 1994 ft | 173 kts | 70° |
| 2026-05-07 18:12 | 52.22039 | 4.55897 | 1986 ft | 174 kts | 59° |
| 2026-05-07 18:13 | 52.22696 | 4.57600 | 1989 ft | 176 kts | 58° |
| 2026-05-07 18:13 | 52.23340 | 4.59259 | 1989 ft | 175 kts | 58° |
| 2026-05-07 18:13 | 52.23987 | 4.60943 | 1880 ft | 174 kts | 58° |
| 2026-05-07 18:13 | 52.24624 | 4.62602 | 1641 ft | 173 kts | 58° |
| 2026-05-07 18:14 | 52.25247 | 4.64218 | 1367 ft | 160 kts | 58° |
| 2026-05-07 18:14 | 52.25808 | 4.65674 | 1158 ft | 145 kts | 57° |
| 2026-05-07 18:14 | 52.26331 | 4.67030 | 993 ft | 135 kts | 57° |
| 2026-05-07 18:14 | 52.26807 | 4.68268 | 798 ft | 124 kts | 57° |
| 2026-05-07 18:15 | 52.27262 | 4.69448 | 639 ft | 122 kts | 58° |
| 2026-05-07 18:15 | 52.27712 | 4.70630 | 478 ft | 123 kts | 58° |
| 2026-05-07 18:15 | 52.28164 | 4.71800 | 327 ft | 122 kts | 57° |
| 2026-05-07 18:15 | 52.28617 | 4.72967 | 166 ft | 120 kts | 57° |
| 2026-05-07 18:16 | 52.29059 | 4.74108 | 26 ft | 116 kts | 58° |
| 2026-05-07 18:16 | 52.29439 | 4.75098 | 0 ft | 81 kts | 57° |
| 2026-05-07 18:16 | 52.29651 | 4.75645 | 2 ft | 43 kts | 52° |
| 2026-05-07 18:16 | 52.29874 | 4.75882 | 2 ft | 22 kts | 29° |
| 2026-05-07 18:17 | 52.29891 | 4.75898 | 2 ft | 1 kts | 27° |
| 2026-05-07 18:17 | 52.29894 | 4.75900 | 2 ft | 2 kts | 27° |
| 2026-05-07 18:17 | 52.29925 | 4.75927 | 2 ft | 7 kts | 28° |
| 2026-05-07 18:17 | 52.29985 | 4.75984 | 2 ft | 14 kts | 39° |
| 2026-05-07 18:18 | 52.30049 | 4.76128 | 2 ft | 16 kts | 57° |
| 2026-05-07 18:18 | 52.30106 | 4.76286 | 2 ft | 16 kts | 58° |
| 2026-05-07 18:18 | 52.30166 | 4.76442 | 2 ft | 16 kts | 58° |
| 2026-05-07 18:18 | 52.30226 | 4.76599 | 2 ft | 16 kts | 58° |
| 2026-05-07 18:19 | 52.30287 | 4.76756 | 2 ft | 16 kts | 58° |
| 2026-05-07 18:19 | 52.30348 | 4.76916 | 2 ft | 17 kts | 58° |
| 2026-05-07 18:19 | 52.30411 | 4.77078 | 2 ft | 18 kts | 58° |
| 2026-05-07 18:19 | 52.30478 | 4.77254 | 2 ft | 19 kts | 58° |
| 2026-05-07 18:20 | 52.30550 | 4.77441 | 2 ft | 20 kts | 58° |
| 2026-05-07 18:20 | 52.30646 | 4.77584 | 2 ft | 19 kts | 11° |
| 2026-05-07 18:20 | 52.30778 | 4.77599 | 2 ft | 15 kts | 3° |
| 2026-05-07 18:20 | 52.30830 | 4.77542 | 2 ft | 8 kts | 283° |
| 2026-05-07 18:21 | 52.30836 | 4.77442 | 2 ft | 10 kts | 273° |
| 2026-05-07 18:21 | 52.30851 | 4.77371 | 2 ft | 3 kts | 332° |
| 2026-05-07 18:21 | 52.30874 | 4.77365 | 2 ft | 0 kts | 359° |
| 2026-05-07 18:21 | 52.30880 | 4.77365 | 2 ft | 2 kts | 3° |
| 2026-05-07 18:22 | 52.30891 | 4.77366 | 2 ft | 0 kts | 3° |
| 2026-05-07 18:22 | 52.30894 | 4.77367 | 2 ft | 1 kts | 3° |
| 2026-05-07 18:22 | 52.30895 | 4.77367 | 2 ft | 0 kts | 3° |